Time;durP1;ratioP1;P1;durP2;ratioP2;P2;SDS_P1;SDS_P2;PMS_P1;PMS_P2;Temp;Humidity;BMP_temperature;BMP_pressure;BME280_temperature;BME280_humidity;BME280_pressure;Samples;Min_cycle;Max_cycle;Signal;HPM_P1;HPM_P2
2021/06/29 00:00:00;;;;;;;43.30;11.77;;;;;;;;;;3556106;40;20430;-64
2021/06/29 00:02:25;;;;;;;59.23;12.37;;;;;;;;;;3557776;40;20077;-64
2021/06/29 00:04:50;;;;;;;15.33;8.10;;;;;;;;;;3557721;40;20074;-64
2021/06/29 00:07:16;;;;;;;17.40;8.97;;;;;;;;;;3556349;40;20088;-64
2021/06/29 00:09:41;;;;;;;11.10;6.10;;;;;;;;;;3554048;40;20086;-64
2021/06/29 00:12:06;;;;;;;9.13;6.87;;;;;;;;;;3552821;40;20070;-64
2021/06/29 00:14:31;;;;;;;8.63;6.43;;;;;;;;;;3567280;40;20089;-64
2021/06/29 00:16:56;;;;;;;15.87;8.17;;;;;;;;;;3549799;40;20065;-64
2021/06/29 00:19:21;;;;;;;7.73;6.20;;;;;;;;;;3549401;40;20030;-64
2021/06/29 00:21:47;;;;;;;9.67;6.30;;;;;;;;;;3549174;40;20032;-64
2021/06/29 00:24:12;;;;;;;7.87;6.10;;;;;;;;;;3551074;40;20084;-63
2021/06/29 00:26:37;;;;;;;11.73;6.80;;;;;;;;;;3552742;40;20100;-64
2021/06/29 00:29:02;;;;;;;15.73;8.13;;;;;;;;;;3554248;40;20041;-64
2021/06/29 00:31:27;;;;;;;14.90;8.30;;;;;;;;;;3562227;40;20491;-64
2021/06/29 00:33:53;;;;;;;20.87;8.70;;;;;;;;;;3557083;40;20387;-64
2021/06/29 00:36:18;;;;;;;18.40;8.88;;;;;;;;;;3558508;40;20317;-64
2021/06/29 00:38:43;;;;;;;11.30;6.83;;;;;;;;;;3557441;40;20033;-64
2021/06/29 00:41:08;;;;;;;8.97;6.80;;;;;;;;;;3555631;40;20714;-64
2021/06/29 00:43:34;;;;;;;11.50;7.83;;;;;;;;;;3554857;40;20092;-64
2021/06/29 00:45:59;;;;;;;10.17;7.20;;;;;;;;;;3552794;40;20026;-63
2021/06/29 00:48:24;;;;;;;13.70;8.53;;;;;;;;;;3552034;40;20038;-64
2021/06/29 00:50:49;;;;;;;13.87;8.40;;;;;;;;;;3550170;40;20026;-64
2021/06/29 00:53:15;;;;;;;9.00;6.40;;;;;;;;;;3549014;40;20116;-64
2021/06/29 00:55:40;;;;;;;14.02;7.78;;;;;;;;;;3550710;40;20659;-64
2021/06/29 00:58:05;;;;;;;12.17;7.73;;;;;;;;;;3552208;40;20049;-64
2021/06/29 01:00:30;;;;;;;34.97;12.20;;;;;;;;;;3553006;40;20029;-64
2021/06/29 01:02:56;;;;;;;41.73;11.77;;;;;;;;;;3555196;40;20293;-64
2021/06/29 01:05:21;;;;;;;37.83;11.60;;;;;;;;;;3557379;40;20288;-64
2021/06/29 01:07:47;;;;;;;36.10;11.73;;;;;;;;;;3557502;40;20162;-64
2021/06/29 01:10:12;;;;;;;33.60;11.02;;;;;;;;;;3557546;40;20272;-64
2021/06/29 01:12:37;;;;;;;44.83;11.80;;;;;;;;;;3556349;40;20391;-64
2021/06/29 01:15:02;;;;;;;30.60;10.70;;;;;;;;;;3554836;40;20068;-64
2021/06/29 01:17:28;;;;;;;41.63;12.03;;;;;;;;;;3554368;40;20604;-64
2021/06/29 01:19:53;;;;;;;41.22;11.60;;;;;;;;;;3554737;40;20025;-64
2021/06/29 01:22:20;;;;;;;48.67;12.70;;;;;;;;;;3556041;40;20061;-64
2021/06/29 01:24:54;;;;;;;45.00;11.52;;;;;;;;;;3557580;40;20037;-64
2021/06/29 01:32:22;;;;;;;39.77;12.03;;;;;;;;;;3557367;40;20022;-63
2021/06/29 01:34:47;;;;;;;41.80;10.90;;;;;;;;;;3553676;40;20029;-64
2021/06/29 01:37:12;;;;;;;37.00;11.83;;;;;;;;;;3557269;40;20065;-64
2021/06/29 01:39:37;;;;;;;44.83;14.48;;;;;;;;;;3556389;40;20029;-64
2021/06/29 01:42:03;;;;;;;27.17;11.45;;;;;;;;;;3549818;40;20040;-64
2021/06/29 01:44:34;;;;;;;34.13;12.30;;;;;;;;;;3550448;40;20375;-64
2021/06/29 01:47:00;;;;;;;30.70;11.32;;;;;;;;;;3552432;40;20427;-64
2021/06/29 01:49:25;;;;;;;45.15;13.05;;;;;;;;;;3552972;40;20030;-64
2021/06/29 01:51:51;;;;;;;49.78;13.45;;;;;;;;;;3555710;40;20115;-64
2021/06/29 01:54:16;;;;;;;41.90;11.90;;;;;;;;;;3557183;40;20021;-64
2021/06/29 01:56:41;;;;;;;40.20;12.07;;;;;;;;;;3557404;40;20278;-64
2021/06/29 01:59:07;;;;;;;35.30;12.57;;;;;;;;;;3556789;40;20078;-64
2021/06/29 02:01:32;;;;;;;42.70;13.00;;;;;;;;;;3558223;40;20042;-64
2021/06/29 02:03:58;;;;;;;22.60;11.17;;;;;;;;;;3558243;40;20416;-64
2021/06/29 02:06:23;;;;;;;27.05;13.20;;;;;;;;;;3555244;40;20033;-64
2021/06/29 02:08:48;;;;;;;36.70;12.37;;;;;;;;;;3554894;40;20768;-64
2021/06/29 02:11:13;;;;;;;22.77;11.17;;;;;;;;;;3557949;40;20037;-64
2021/06/29 02:13:38;;;;;;;35.40;13.20;;;;;;;;;;3558939;40;20073;-64
2021/06/29 02:16:04;;;;;;;26.13;12.50;;;;;;;;;;3559638;40;20594;-64
2021/06/29 02:18:29;;;;;;;41.10;13.63;;;;;;;;;;3558684;40;20063;-64
2021/06/29 02:20:54;;;;;;;37.13;13.20;;;;;;;;;;3554130;40;20050;-64
2021/06/29 02:23:19;;;;;;;34.83;13.05;;;;;;;;;;3557652;40;20049;-64
2021/06/29 02:25:45;;;;;;;28.67;12.77;;;;;;;;;;3554219;40;20066;-64
2021/06/29 02:28:10;;;;;;;63.27;14.27;;;;;;;;;;3553431;40;20265;-64
2021/06/29 02:30:35;;;;;;;84.50;16.53;;;;;;;;;;3556374;40;20088;-63
2021/06/29 02:33:00;;;;;;;76.30;15.63;;;;;;;;;;3553313;40;20018;-64
2021/06/29 02:35:25;;;;;;;27.77;12.87;;;;;;;;;;3552149;40;20037;-64
2021/06/29 02:37:51;;;;;;;27.47;11.33;;;;;;;;;;3556000;40;20174;-64
2021/06/29 02:40:16;;;;;;;19.37;12.03;;;;;;;;;;3554515;40;20037;-64
2021/06/29 02:42:41;;;;;;;19.27;10.97;;;;;;;;;;3553538;40;20426;-64
2021/06/29 02:45:07;;;;;;;18.90;11.00;;;;;;;;;;3557890;40;20034;-64
2021/06/29 02:47:32;;;;;;;18.75;11.27;;;;;;;;;;3556725;40;20952;-64
2021/06/29 02:49:58;;;;;;;17.40;10.77;;;;;;;;;;3558183;40;20115;-64
2021/06/29 02:52:23;;;;;;;18.67;11.07;;;;;;;;;;3555982;40;21039;-64
2021/06/29 02:54:48;;;;;;;12.57;9.97;;;;;;;;;;3554606;40;20036;-63
2021/06/29 02:57:13;;;;;;;14.43;10.10;;;;;;;;;;3554839;40;20045;-64
2021/06/29 02:59:39;;;;;;;15.87;9.50;;;;;;;;;;3555015;40;20026;-64
2021/06/29 03:02:04;;;;;;;15.80;10.63;;;;;;;;;;3556604;40;20063;-64
2021/06/29 03:04:29;;;;;;;11.87;9.80;;;;;;;;;;3556778;40;20576;-64
2021/06/29 03:06:54;;;;;;;18.40;9.60;;;;;;;;;;3550425;40;20814;-65
2021/06/29 03:09:19;;;;;;;17.67;11.30;;;;;;;;;;3557384;40;20049;-65
2021/06/29 03:11:45;;;;;;;17.87;10.70;;;;;;;;;;3556170;40;20034;-64
2021/06/29 03:14:10;;;;;;;17.63;10.60;;;;;;;;;;3554024;40;20041;-64
2021/06/29 03:16:35;;;;;;;17.08;11.80;;;;;;;;;;3553783;40;20490;-65
2021/06/29 03:19:00;;;;;;;16.40;10.77;;;;;;;;;;3552859;40;20029;-64
2021/06/29 03:21:26;;;;;;;15.87;10.77;;;;;;;;;;3550842;40;20037;-64
2021/06/29 03:23:51;;;;;;;20.47;10.93;;;;;;;;;;3558435;40;20410;-64
2021/06/29 03:26:16;;;;;;;16.23;11.17;;;;;;;;;;3557202;40;20042;-64
2021/06/29 03:28:41;;;;;;;30.63;12.97;;;;;;;;;;3554844;40;20142;-64
2021/06/29 03:31:06;;;;;;;24.97;12.40;;;;;;;;;;3554624;40;20026;-64
2021/06/29 03:33:32;;;;;;;35.20;14.70;;;;;;;;;;3556354;40;20026;-64
2021/06/29 03:35:57;;;;;;;22.10;12.50;;;;;;;;;;3557814;40;20041;-64
2021/06/29 03:38:22;;;;;;;23.13;12.03;;;;;;;;;;3559567;40;20032;-65
2021/06/29 03:40:47;;;;;;;31.67;12.37;;;;;;;;;;3558144;40;20066;-65
2021/06/29 03:43:12;;;;;;;33.28;13.32;;;;;;;;;;3556931;40;20192;-65
2021/06/29 03:45:38;;;;;;;25.10;12.10;;;;;;;;;;3555143;40;20034;-64
2021/06/29 03:48:03;;;;;;;30.53;12.80;;;;;;;;;;3555339;40;20034;-65
2021/06/29 03:50:28;;;;;;;34.50;13.35;;;;;;;;;;3556630;40;20423;-63
2021/06/29 03:52:53;;;;;;;27.77;12.53;;;;;;;;;;3556535;40;20269;-64
2021/06/29 03:55:19;;;;;;;32.23;13.83;;;;;;;;;;3549650;40;20265;-65
2021/06/29 03:57:44;;;;;;;31.67;12.60;;;;;;;;;;3551573;40;20029;-64
2021/06/29 04:00:09;;;;;;;35.60;13.20;;;;;;;;;;3555027;40;20644;-64
2021/06/29 04:02:34;;;;;;;33.40;13.75;;;;;;;;;;3555711;40;20363;-64
2021/06/29 04:05:00;;;;;;;30.27;12.87;;;;;;;;;;3552789;40;20074;-64
2021/06/29 04:07:28;;;;;;;32.70;13.13;;;;;;;;;;3551494;40;20049;-64
2021/06/29 04:09:53;;;;;;;46.35;14.43;;;;;;;;;;3549678;40;20683;-64
2021/06/29 04:12:18;;;;;;;55.03;16.27;;;;;;;;;;3558262;40;20119;-64
2021/06/29 04:14:43;;;;;;;46.00;14.40;;;;;;;;;;3557305;40;20042;-64
2021/06/29 04:17:08;;;;;;;35.10;13.23;;;;;;;;;;3556044;40;20081;-64
2021/06/29 04:19:34;;;;;;;37.37;14.17;;;;;;;;;;3553895;40;20095;-64
2021/06/29 04:21:59;;;;;;;33.90;13.83;;;;;;;;;;3555336;40;20493;-64
2021/06/29 04:24:24;;;;;;;27.80;12.63;;;;;;;;;;3555205;40;20489;-64
2021/06/29 04:26:49;;;;;;;32.40;13.37;;;;;;;;;;3549769;40;20103;-64
2021/06/29 04:29:14;;;;;;;25.63;12.37;;;;;;;;;;3549386;40;20593;-63
2021/06/29 04:31:40;;;;;;;42.70;14.70;;;;;;;;;;3551067;40;20264;-64
2021/06/29 04:34:05;;;;;;;43.73;16.53;;;;;;;;;;3554832;40;20038;-64
2021/06/29 04:36:30;;;;;;;41.93;14.37;;;;;;;;;;3555224;40;20033;-64
2021/06/29 04:38:55;;;;;;;50.43;14.97;;;;;;;;;;3555694;40;20304;-64
2021/06/29 04:41:20;;;;;;;64.53;15.07;;;;;;;;;;3556383;40;20069;-64
2021/06/29 04:43:46;;;;;;;53.20;15.13;;;;;;;;;;3558631;40;20088;-64
2021/06/29 04:46:11;;;;;;;13.35;9.77;;;;;;;;;;3558391;40;20577;-63
2021/06/29 04:48:38;;;;;;;16.37;10.27;;;;;;;;;;3557916;40;20034;-64
2021/06/29 04:51:03;;;;;;;13.60;9.48;;;;;;;;;;3555225;40;20037;-64
2021/06/29 04:53:28;;;;;;;10.40;8.93;;;;;;;;;;3553765;40;20042;-64
2021/06/29 04:55:53;;;;;;;13.87;8.93;;;;;;;;;;3552467;40;20108;-64
2021/06/29 04:58:19;;;;;;;18.80;9.83;;;;;;;;;;3556844;40;20032;-64
2021/06/29 05:00:45;;;;;;;14.10;9.37;;;;;;;;;;3558447;40;20318;-64
2021/06/29 05:03:10;;;;;;;14.10;10.07;;;;;;;;;;3557617;40;20030;-64
2021/06/29 05:05:35;;;;;;;15.90;10.33;;;;;;;;;;3551084;40;20055;-63
2021/06/29 05:08:01;;;;;;;15.30;9.63;;;;;;;;;;3554053;40;20037;-64
2021/06/29 05:10:27;;;;;;;15.50;11.05;;;;;;;;;;3554475;40;20050;-64
2021/06/29 05:12:53;;;;;;;12.68;10.23;;;;;;;;;;3554672;40;20053;-64
2021/06/29 05:15:18;;;;;;;12.77;10.40;;;;;;;;;;3552143;40;20069;-64
2021/06/29 05:17:44;;;;;;;13.20;9.40;;;;;;;;;;3552413;40;20597;-63
2021/06/29 05:20:09;;;;;;;15.00;10.47;;;;;;;;;;3551565;40;20022;-64
2021/06/29 05:22:34;;;;;;;13.83;10.47;;;;;;;;;;3552695;40;20030;-64
2021/06/29 05:25:00;;;;;;;17.83;9.97;;;;;;;;;;3556370;40;20025;-64
2021/06/29 05:27:26;;;;;;;14.38;9.85;;;;;;;;;;3573118;40;20264;-64
2021/06/29 05:29:51;;;;;;;12.63;10.90;;;;;;;;;;3555882;40;20040;-64
2021/06/29 05:32:16;;;;;;;14.70;10.57;;;;;;;;;;3555615;40;20334;-64
2021/06/29 05:34:41;;;;;;;15.00;10.93;;;;;;;;;;3557300;40;20056;-64
2021/06/29 05:37:06;;;;;;;22.30;12.50;;;;;;;;;;3551867;40;20406;-64
2021/06/29 05:39:32;;;;;;;12.73;10.53;;;;;;;;;;3554731;40;20283;-63
2021/06/29 05:41:57;;;;;;;15.57;10.77;;;;;;;;;;3553175;40;20086;-64
2021/06/29 05:44:22;;;;;;;13.27;10.83;;;;;;;;;;3555219;40;21066;-64
2021/06/29 05:46:48;;;;;;;17.47;10.40;;;;;;;;;;3556145;40;20026;-64
2021/06/29 05:49:14;;;;;;;14.13;11.25;;;;;;;;;;3550737;40;20387;-64
2021/06/29 05:51:39;;;;;;;12.57;9.57;;;;;;;;;;3556557;40;20038;-64
2021/06/29 05:54:04;;;;;;;14.87;11.30;;;;;;;;;;3551198;40;20091;-64
2021/06/29 05:56:30;;;;;;;19.30;10.50;;;;;;;;;;3554342;40;20272;-64
2021/06/29 05:58:55;;;;;;;14.90;10.47;;;;;;;;;;3555003;40;20076;-63
2021/06/29 06:01:20;;;;;;;13.37;10.93;;;;;;;;;;3553458;40;20041;-64
2021/06/29 06:03:45;;;;;;;14.97;10.00;;;;;;;;;;3552259;40;20115;-64
2021/06/29 06:06:10;;;;;;;14.70;10.83;;;;;;;;;;3550870;40;20615;-64
2021/06/29 06:08:35;;;;;;;13.60;10.07;;;;;;;;;;3551188;40;20406;-64
2021/06/29 06:11:01;;;;;;;14.87;10.77;;;;;;;;;;3551989;40;20045;-63
2021/06/29 06:13:26;;;;;;;13.73;10.33;;;;;;;;;;3555803;40;20030;-64
2021/06/29 06:15:53;;;;;;;13.90;10.90;;;;;;;;;;3555397;40;20044;-64
2021/06/29 06:18:18;;;;;;;14.63;10.35;;;;;;;;;;3552902;40;20096;-63
2021/06/29 06:20:43;;;;;;;15.70;11.37;;;;;;;;;;3551389;40;20035;-63
2021/06/29 06:23:09;;;;;;;12.80;10.47;;;;;;;;;;3552208;40;20104;-63
2021/06/29 06:25:34;;;;;;;12.88;10.55;;;;;;;;;;3553579;40;20021;-64
2021/06/29 06:27:59;;;;;;;18.20;11.13;;;;;;;;;;3555059;40;20041;-63
2021/06/29 06:30:24;;;;;;;19.00;12.00;;;;;;;;;;3552831;40;20033;-63
2021/06/29 06:32:49;;;;;;;15.23;11.80;;;;;;;;;;3554477;40;20037;-63
2021/06/29 06:35:15;;;;;;;15.13;10.70;;;;;;;;;;3555997;40;20037;-64
2021/06/29 06:37:40;;;;;;;21.03;10.90;;;;;;;;;;3554531;40;20040;-63
2021/06/29 06:40:05;;;;;;;15.57;10.83;;;;;;;;;;3551965;40;20038;-64
2021/06/29 06:42:30;;;;;;;14.00;11.10;;;;;;;;;;3555297;40;20032;-63
2021/06/29 06:44:56;;;;;;;17.27;12.07;;;;;;;;;;3557984;40;20042;-64
2021/06/29 06:47:22;;;;;;;17.30;13.07;;;;;;;;;;3557032;40;20127;-64
2021/06/29 06:49:47;;;;;;;28.03;16.67;;;;;;;;;;3554013;40;20050;-64
2021/06/29 06:52:12;;;;;;;20.60;11.13;;;;;;;;;;3555910;40;20034;-64
2021/06/29 06:54:37;;;;;;;17.13;12.23;;;;;;;;;;3553248;40;20411;-63
2021/06/29 06:57:02;;;;;;;18.67;12.73;;;;;;;;;;3557926;40;20026;-63
2021/06/29 06:59:28;;;;;;;15.67;10.80;;;;;;;;;;3557734;40;20030;-65
2021/06/29 07:01:53;;;;;;;20.65;13.23;;;;;;;;;;3556360;40;20030;-64
2021/06/29 07:04:19;;;;;;;20.57;10.80;;;;;;;;;;3557274;40;20116;-65
2021/06/29 07:06:45;;;;;;;18.13;10.52;;;;;;;;;;3554856;40;20762;-64
2021/06/29 07:09:10;;;;;;;16.73;10.97;;;;;;;;;;3556137;40;20053;-64
2021/06/29 07:11:35;;;;;;;20.13;12.20;;;;;;;;;;3556590;40;20411;-64
2021/06/29 07:14:00;;;;;;;15.43;10.60;;;;;;;;;;3553367;40;20737;-64
2021/06/29 07:16:26;;;;;;;20.70;13.03;;;;;;;;;;3552499;40;20029;-64
2021/06/29 07:18:51;;;;;;;22.75;11.20;;;;;;;;;;3556822;40;20720;-64
2021/06/29 07:21:16;;;;;;;14.67;10.77;;;;;;;;;;3553037;40;20748;-67
2021/06/29 07:23:42;;;;;;;23.20;12.67;;;;;;;;;;3552876;40;20041;-64
2021/06/29 07:26:07;;;;;;;20.37;12.30;;;;;;;;;;3555241;40;20024;-64
2021/06/29 07:28:32;;;;;;;17.57;11.27;;;;;;;;;;3554647;40;20487;-64
2021/06/29 07:30:58;;;;;;;15.27;12.17;;;;;;;;;;3554195;40;20036;-61
2021/06/29 07:33:23;;;;;;;16.27;11.70;;;;;;;;;;3552941;40;20185;-61
2021/06/29 07:35:49;;;;;;;17.43;11.37;;;;;;;;;;3555685;40;20550;-61
2021/06/29 07:38:14;;;;;;;16.42;11.95;;;;;;;;;;3556004;40;20030;-61
2021/06/29 07:40:39;;;;;;;10.93;8.70;;;;;;;;;;3557386;39;20751;-61
2021/06/29 07:43:04;;;;;;;18.97;11.60;;;;;;;;;;3576881;40;20633;-61
2021/06/29 07:45:30;;;;;;;67.93;15.87;;;;;;;;;;3568258;40;20025;-61
2021/06/29 07:47:56;;;;;;;19.53;11.23;;;;;;;;;;3567025;40;20093;-61
2021/06/29 07:50:22;;;;;;;15.77;8.68;;;;;;;;;;3567118;40;20040;-60
2021/06/29 07:52:47;;;;;;;14.20;10.43;;;;;;;;;;3564934;40;20037;-61
2021/06/29 07:55:12;;;;;;;15.07;10.87;;;;;;;;;;3562354;40;20029;-61
2021/06/29 07:57:38;;;;;;;10.30;8.18;;;;;;;;;;3569618;40;20044;-61
2021/06/29 08:00:03;;;;;;;14.13;9.63;;;;;;;;;;3567275;40;20980;-61
2021/06/29 08:02:37;;;;;;;17.67;9.90;;;;;;;;;;3567479;40;20352;-61
2021/06/29 08:05:02;;;;;;;17.87;9.93;;;;;;;;;;3573722;40;20033;-60
2021/06/29 08:07:28;;;;;;;11.73;9.60;;;;;;;;;;3574630;40;20041;-61
2021/06/29 08:09:53;;;;;;;12.05;8.48;;;;;;;;;;3566246;40;20100;-61
2021/06/29 08:12:18;;;;;;;13.07;9.20;;;;;;;;;;3564132;40;20049;-61
2021/06/29 08:14:43;;;;;;;11.98;9.10;;;;;;;;;;3564948;40;20084;-61
2021/06/29 08:17:09;;;;;;;9.77;8.23;;;;;;;;;;3564395;40;20033;-61
2021/06/29 08:19:34;;;;;;;13.25;9.05;;;;;;;;;;3566640;40;20126;-61
2021/06/29 08:21:59;;;;;;;10.67;8.77;;;;;;;;;;3567383;40;20298;-61
2021/06/29 08:24:24;;;;;;;15.57;8.50;;;;;;;;;;3567756;40;20951;-61
2021/06/29 08:26:50;;;;;;;16.13;9.07;;;;;;;;;;3564926;40;20038;-61
2021/06/29 08:29:15;;;;;;;11.47;8.57;;;;;;;;;;3562723;40;20110;-61
2021/06/29 08:31:40;;;;;;;17.80;8.57;;;;;;;;;;3563550;40;20049;-61
2021/06/29 08:34:05;;;;;;;12.53;9.37;;;;;;;;;;3567270;40;20029;-61
2021/06/29 08:36:31;;;;;;;11.82;7.57;;;;;;;;;;3559416;40;20081;-61
2021/06/29 08:38:56;;;;;;;16.23;8.18;;;;;;;;;;3566692;40;20048;-62
2021/06/29 08:41:21;;;;;;;17.47;8.83;;;;;;;;;;3568533;40;20040;-61
2021/06/29 08:43:46;;;;;;;15.17;8.70;;;;;;;;;;3565290;40;20768;-61
2021/06/29 08:46:12;;;;;;;20.17;9.90;;;;;;;;;;3564534;40;20368;-62
2021/06/29 08:48:37;;;;;;;38.40;13.73;;;;;;;;;;3562773;40;20131;-61
2021/06/29 08:51:06;;;;;;;24.67;10.27;;;;;;;;;;3564395;40;20412;-61
2021/06/29 08:53:31;;;;;;;16.70;8.73;;;;;;;;;;3568047;40;20056;-61
2021/06/29 08:55:58;;;;;;;13.50;8.33;;;;;;;;;;3577858;40;20032;-61
2021/06/29 08:58:23;;;;;;;13.02;9.20;;;;;;;;;;3568325;40;20029;-61
2021/06/29 09:00:48;;;;;;;15.13;10.40;;;;;;;;;;3566302;40;20300;-61
2021/06/29 09:03:13;;;;;;;14.47;9.07;;;;;;;;;;3569911;40;20029;-61
2021/06/29 09:05:39;;;;;;;20.23;11.27;;;;;;;;;;3568836;40;20246;-61
2021/06/29 09:08:04;;;;;;;16.37;9.83;;;;;;;;;;3568949;40;20021;-61
2021/06/29 09:10:29;;;;;;;17.87;10.60;;;;;;;;;;3566158;40;20041;-61
2021/06/29 09:12:55;;;;;;;13.50;9.57;;;;;;;;;;3563762;40;20338;-61
2021/06/29 09:15:20;;;;;;;16.15;10.55;;;;;;;;;;3567902;40;21054;-61
2021/06/29 09:17:46;;;;;;;24.98;12.27;;;;;;;;;;3566401;40;20052;-61
2021/06/29 09:20:11;;;;;;;16.05;10.73;;;;;;;;;;3568945;40;20036;-61
2021/06/29 09:22:36;;;;;;;19.90;11.50;;;;;;;;;;3568261;40;20045;-61
2021/06/29 09:25:02;;;;;;;15.57;10.55;;;;;;;;;;3569677;40;20055;-61
2021/06/29 09:27:27;;;;;;;17.60;10.17;;;;;;;;;;3569315;40;20044;-61
2021/06/29 09:29:52;;;;;;;18.50;10.37;;;;;;;;;;3568532;40;20327;-61
2021/06/29 09:32:18;;;;;;;16.67;10.33;;;;;;;;;;3567786;40;20267;-61
2021/06/29 09:34:43;;;;;;;21.08;12.05;;;;;;;;;;3569859;40;20256;-61
2021/06/29 09:37:08;;;;;;;23.17;11.80;;;;;;;;;;3568692;40;20115;-61
2021/06/29 09:39:33;;;;;;;24.60;12.90;;;;;;;;;;3568494;40;20025;-61
2021/06/29 09:41:59;;;;;;;24.67;12.83;;;;;;;;;;3569726;40;20346;-61
2021/06/29 09:44:24;;;;;;;22.20;11.13;;;;;;;;;;3566421;40;20787;-61
2021/06/29 09:46:49;;;;;;;23.80;12.70;;;;;;;;;;3563863;40;20025;-61
2021/06/29 09:49:15;;;;;;;30.77;13.10;;;;;;;;;;3569835;40;20723;-64
2021/06/29 09:51:40;;;;;;;24.02;12.57;;;;;;;;;;3564035;40;20040;-64
2021/06/29 09:54:09;;;;;;;36.60;16.63;;;;;;;;;;3570085;40;20114;-64
2021/06/29 09:56:39;;;;;;;31.75;18.20;;;;;;;;;;3568441;40;20806;-64
2021/06/29 09:59:04;;;;;;;16.98;11.00;;;;;;;;;;3570617;40;20037;-64
2021/06/29 10:01:29;;;;;;;13.47;8.87;;;;;;;;;;3570371;40;20764;-64
2021/06/29 10:03:54;;;;;;;15.77;8.88;;;;;;;;;;3569748;40;20454;-64
2021/06/29 10:06:20;;;;;;;15.43;9.23;;;;;;;;;;3566379;40;20297;-64
2021/06/29 10:08:45;;;;;;;12.90;8.77;;;;;;;;;;3566632;40;20030;-64
2021/06/29 10:11:10;;;;;;;17.47;8.47;;;;;;;;;;3568089;40;20135;-64
2021/06/29 10:13:35;;;;;;;26.90;15.03;;;;;;;;;;3570265;40;20715;-64
2021/06/29 10:16:01;;;;;;;13.60;9.27;;;;;;;;;;3565684;40;20953;-64
2021/06/29 10:18:26;;;;;;;16.10;8.90;;;;;;;;;;3562518;40;20028;-64
2021/06/29 10:20:52;;;;;;;11.60;7.28;;;;;;;;;;3566912;40;20298;-64
2021/06/29 10:23:18;;;;;;;12.15;7.50;;;;;;;;;;3565000;40;20025;-64
2021/06/29 10:25:43;;;;;;;13.07;7.57;;;;;;;;;;3565973;40;20115;-64
2021/06/29 10:28:08;;;;;;;10.53;8.37;;;;;;;;;;3567513;40;20018;-64
2021/06/29 10:30:34;;;;;;;25.50;8.77;;;;;;;;;;3568231;40;20308;-64
2021/06/29 10:33:01;;;;;;;12.00;9.13;;;;;;;;;;3571011;40;20271;-64
2021/06/29 10:35:26;;;;;;;18.10;8.40;;;;;;;;;;3561412;40;20282;-64
2021/06/29 10:37:51;;;;;;;16.23;9.67;;;;;;;;;;3575177;40;20037;-64
2021/06/29 10:40:17;;;;;;;10.47;7.10;;;;;;;;;;3567401;40;20272;-64
2021/06/29 10:42:42;;;;;;;14.67;8.37;;;;;;;;;;3563480;40;20649;-64
2021/06/29 10:45:08;;;;;;;10.45;7.22;;;;;;;;;;3567977;40;20036;-64
2021/06/29 10:47:33;;;;;;;9.57;7.13;;;;;;;;;;3563509;40;20371;-64
2021/06/29 10:49:58;;;;;;;14.63;7.83;;;;;;;;;;3561905;40;20045;-64
2021/06/29 10:52:23;;;;;;;7.70;6.83;;;;;;;;;;3565208;40;20038;-64
2021/06/29 10:54:49;;;;;;;9.95;7.25;;;;;;;;;;3565703;40;20597;-65
2021/06/29 10:57:16;;;;;;;12.00;6.87;;;;;;;;;;3565593;40;20707;-65
2021/06/29 10:59:41;;;;;;;7.35;6.32;;;;;;;;;;3565220;40;20398;-65
2021/06/29 11:02:07;;;;;;;14.30;7.23;;;;;;;;;;3565763;40;20040;-65
2021/06/29 11:04:32;;;;;;;11.90;7.30;;;;;;;;;;3564230;40;20275;-64
2021/06/29 11:06:57;;;;;;;12.13;6.97;;;;;;;;;;3561591;40;20044;-64
2021/06/29 11:09:24;;;;;;;10.50;6.83;;;;;;;;;;3567453;40;20021;-64
2021/06/29 11:11:49;;;;;;;6.55;5.90;;;;;;;;;;3566512;40;20026;-64
2021/06/29 11:14:15;;;;;;;11.20;5.95;;;;;;;;;;3564685;40;20837;-64
2021/06/29 11:16:40;;;;;;;7.63;5.23;;;;;;;;;;3561710;40;20054;-64
2021/06/29 11:19:05;;;;;;;10.97;4.60;;;;;;;;;;3562585;40;20022;-63
2021/06/29 11:21:33;;;;;;;11.83;4.63;;;;;;;;;;3558918;40;20037;-63
2021/06/29 11:23:58;;;;;;;6.32;3.40;;;;;;;;;;3567751;40;20434;-63
2021/06/29 11:26:24;;;;;;;6.10;3.27;;;;;;;;;;3566220;40;20036;-63
2021/06/29 11:28:50;;;;;;;14.30;3.08;;;;;;;;;;3564944;40;20129;-63
2021/06/29 11:31:15;;;;;;;3.35;3.00;;;;;;;;;;3564010;40;20110;-64
2021/06/29 11:33:40;;;;;;;4.20;3.43;;;;;;;;;;3565286;40;20064;-65
2021/06/29 11:36:06;;;;;;;6.93;2.90;;;;;;;;;;3567078;40;20244;-64
2021/06/29 11:38:31;;;;;;;5.50;3.23;;;;;;;;;;3568293;40;20028;-66
2021/06/29 11:40:56;;;;;;;6.43;2.63;;;;;;;;;;3564995;40;20292;-66
2021/06/29 11:43:21;;;;;;;6.33;2.63;;;;;;;;;;3561452;40;20299;-66
2021/06/29 11:45:47;;;;;;;8.17;3.37;;;;;;;;;;3565322;40;21108;-66
2021/06/29 11:48:12;;;;;;;4.10;3.23;;;;;;;;;;3563380;40;20686;-64
2021/06/29 11:50:37;;;;;;;12.10;3.70;;;;;;;;;;3568424;40;20743;-64
2021/06/29 11:53:03;;;;;;;5.65;3.20;;;;;;;;;;3563617;40;20065;-65
2021/06/29 11:55:29;;;;;;;5.68;3.10;;;;;;;;;;3563728;40;20040;-65
2021/06/29 11:57:56;;;;;;;4.05;3.10;;;;;;;;;;3560397;40;20033;-65
2021/06/29 12:00:21;;;;;;;4.13;3.33;;;;;;;;;;3565011;40;20481;-65
2021/06/29 12:02:47;;;;;;;9.55;4.07;;;;;;;;;;3566047;40;20038;-64
2021/06/29 12:05:19;;;;;;;7.00;3.05;;;;;;;;;;3564371;40;20030;-64
2021/06/29 12:07:44;;;;;;;5.32;2.90;;;;;;;;;;3561555;40;20089;-64
2021/06/29 12:10:10;;;;;;;3.80;2.87;;;;;;;;;;3561602;40;20044;-65
2021/06/29 12:12:35;;;;;;;6.22;3.63;;;;;;;;;;3558879;40;20044;-65
2021/06/29 12:15:00;;;;;;;5.67;3.50;;;;;;;;;;3565380;40;20716;-65
2021/06/29 12:17:26;;;;;;;5.20;4.03;;;;;;;;;;3568278;40;20377;-64
2021/06/29 12:19:51;;;;;;;6.77;3.47;;;;;;;;;;3566881;40;20727;-65
2021/06/29 12:22:16;;;;;;;6.23;2.67;;;;;;;;;;3564233;40;20044;-65
2021/06/29 12:24:41;;;;;;;4.93;3.33;;;;;;;;;;3561428;40;20049;-65
2021/06/29 12:27:06;;;;;;;5.40;3.23;;;;;;;;;;3558569;40;20030;-65
2021/06/29 12:29:36;;;;;;;8.83;3.60;;;;;;;;;;3558492;40;20187;-65
2021/06/29 12:32:01;;;;;;;10.27;5.05;;;;;;;;;;3559463;40;20038;-65
2021/06/29 12:34:26;;;;;;;7.93;3.03;;;;;;;;;;3569441;40;20131;-65
2021/06/29 12:36:51;;;;;;;4.20;3.27;;;;;;;;;;3563773;40;20069;-65
2021/06/29 12:39:17;;;;;;;5.53;3.97;;;;;;;;;;3562075;40;20022;-65
2021/06/29 12:41:43;;;;;;;4.57;3.50;;;;;;;;;;3562094;40;20037;-65
2021/06/29 12:44:09;;;;;;;8.02;3.22;;;;;;;;;;3568591;40;20021;-64
2021/06/29 12:46:34;;;;;;;8.23;3.42;;;;;;;;;;3568169;40;20041;-65
2021/06/29 12:49:00;;;;;;;4.65;3.35;;;;;;;;;;3566240;40;20030;-65
2021/06/29 12:51:25;;;;;;;8.90;3.43;;;;;;;;;;3564927;40;20065;-65
2021/06/29 12:53:50;;;;;;;5.40;3.50;;;;;;;;;;3565217;40;20029;-64
2021/06/29 12:56:18;;;;;;;4.37;3.40;;;;;;;;;;3569062;40;20037;-62
2021/06/29 12:58:43;;;;;;;5.97;3.45;;;;;;;;;;3565898;40;20045;-63
2021/06/29 13:01:09;;;;;;;4.67;3.40;;;;;;;;;;3568024;40;20306;-62
2021/06/29 13:03:38;;;;;;;8.43;3.72;;;;;;;;;;3567776;40;20097;-62
2021/06/29 13:06:03;;;;;;;6.60;4.28;;;;;;;;;;3564754;40;20034;-62
2021/06/29 13:08:28;;;;;;;34.00;17.07;;;;;;;;;;3565331;40;20104;-62
2021/06/29 13:10:54;;;;;;;9.03;4.57;;;;;;;;;;3563462;40;20653;-62
2021/06/29 13:13:19;;;;;;;6.03;3.73;;;;;;;;;;3569815;40;20265;-62
2021/06/29 13:15:44;;;;;;;5.47;3.83;;;;;;;;;;3558984;40;20081;-62
2021/06/29 13:18:09;;;;;;;6.17;3.80;;;;;;;;;;3558688;40;20099;-62
2021/06/29 13:20:35;;;;;;;4.13;3.73;;;;;;;;;;3559318;40;20033;-62
2021/06/29 13:23:00;;;;;;;7.90;3.43;;;;;;;;;;3563702;40;20829;-62
2021/06/29 13:25:25;;;;;;;10.10;3.85;;;;;;;;;;3564183;40;20034;-62
2021/06/29 13:27:51;;;;;;;10.27;4.45;;;;;;;;;;3568683;40;20049;-62
2021/06/29 13:30:16;;;;;;;8.00;5.20;;;;;;;;;;3568319;40;20883;-62
2021/06/29 13:32:41;;;;;;;8.87;4.93;;;;;;;;;;3564998;40;20248;-62
2021/06/29 13:35:06;;;;;;;6.00;4.17;;;;;;;;;;3564472;40;20033;-62
2021/06/29 13:37:32;;;;;;;6.40;3.77;;;;;;;;;;3567534;40;20032;-62
2021/06/29 13:39:57;;;;;;;9.27;4.33;;;;;;;;;;3568367;40;20979;-62
2021/06/29 13:42:22;;;;;;;8.70;4.80;;;;;;;;;;3564936;40;20097;-62
2021/06/29 13:44:47;;;;;;;8.33;3.90;;;;;;;;;;3568534;40;20068;-62
2021/06/29 13:47:12;;;;;;;11.83;4.77;;;;;;;;;;3567565;40;20429;-62
2021/06/29 13:49:38;;;;;;;9.93;3.90;;;;;;;;;;3568655;40;20723;-62
2021/06/29 13:52:03;;;;;;;7.27;4.57;;;;;;;;;;3566608;40;20135;-62
2021/06/29 13:54:28;;;;;;;9.93;4.43;;;;;;;;;;3571014;40;20021;-62
2021/06/29 13:56:53;;;;;;;5.87;3.77;;;;;;;;;;3566194;40;20251;-63
2021/06/29 13:59:19;;;;;;;18.83;6.13;;;;;;;;;;3572938;40;20408;-65
2021/06/29 14:01:44;;;;;;;9.27;4.50;;;;;;;;;;3567288;40;20059;-65
2021/06/29 14:04:09;;;;;;;9.70;4.57;;;;;;;;;;3564943;40;20522;-65
2021/06/29 14:06:35;;;;;;;9.20;4.30;;;;;;;;;;3562435;40;20476;-65
2021/06/29 14:09:00;;;;;;;36.72;7.65;;;;;;;;;;3569379;40;20053;-65
2021/06/29 14:11:27;;;;;;;16.77;6.47;;;;;;;;;;3567429;40;20036;-65
2021/06/29 14:13:52;;;;;;;4.45;4.00;;;;;;;;;;3567529;40;20078;-65
2021/06/29 14:16:18;;;;;;;7.33;4.57;;;;;;;;;;3566018;40;20415;-65
2021/06/29 14:18:43;;;;;;;8.70;4.20;;;;;;;;;;3566441;40;20029;-65